Haleiwa, Hawaii
Current Conditions -  °F | °C
As of 11:58 AM on Thursday 27 Nov 2014 (Local Time) from PHHI Reporting Station
Scattered Clouds Scattered Clouds  
Wind Chill: 75°   Ceiling: Unl
Heat Index: 75°   Visibility: 10mi
Dew Point: 59°   Wind: 15mph
Humidity: 58%   Direction: 20°NNE
Pressure: 30.06"   Gusts: 20mph
Location:  21.58°N, 158.1°W
Report Text: PHHI 272158Z AUTO 02013G17KT 10SM SCT039 24/15 A3006 RMK AO2 SLP170 T02370150 $
Loading
Personal Weather Stations






























Interactive Weather Map New forecast layout! Learn more

10-Day Weather Forecast

Advertisements
Track Severe Weather on mobile